sensor_id;sensor_type;location;lat;lon;timestamp;P1;durP1;ratioP1;P2;durP2;ratioP2
17710;SDS011;8975;57.718;12.134;2023-01-08T00:01:35;544.30;;;0.30;;
17710;SDS011;8975;57.718;12.134;2023-01-08T00:04:01;543.70;;;0.20;;
17710;SDS011;8975;57.718;12.134;2023-01-08T00:06:26;543.97;;;0.30;;
17710;SDS011;8975;57.718;12.134;2023-01-08T00:08:51;543.20;;;0.30;;
17710;SDS011;8975;57.718;12.134;2023-01-08T00:11:17;540.13;;;0.20;;
17710;SDS011;8975;57.718;12.134;2023-01-08T00:13:43;544.63;;;0.20;;
17710;SDS011;8975;57.718;12.134;2023-01-08T00:16:10;547.70;;;0.30;;
17710;SDS011;8975;57.718;12.134;2023-01-08T00:18:37;545.08;;;0.20;;
17710;SDS011;8975;57.718;12.134;2023-01-08T00:21:03;541.85;;;0.20;;
17710;SDS011;8975;57.718;12.134;2023-01-08T00:23:29;543.47;;;0.20;;
17710;SDS011;8975;57.718;12.134;2023-01-08T00:25:54;544.77;;;0.20;;
17710;SDS011;8975;57.718;12.134;2023-01-08T00:28:20;542.03;;;0.20;;
17710;SDS011;8975;57.718;12.134;2023-01-08T00:30:46;538.13;;;0.20;;
17710;SDS011;8975;57.718;12.134;2023-01-08T00:33:12;543.58;;;0.20;;
17710;SDS011;8975;57.718;12.134;2023-01-08T00:35:38;543.03;;;0.20;;
17710;SDS011;8975;57.718;12.134;2023-01-08T00:38:03;542.95;;;0.20;;
17710;SDS011;8975;57.718;12.134;2023-01-08T00:40:29;539.55;;;0.20;;
17710;SDS011;8975;57.718;12.134;2023-01-08T00:42:55;539.05;;;0.20;;
17710;SDS011;8975;57.718;12.134;2023-01-08T00:45:20;543.05;;;0.20;;
17710;SDS011;8975;57.718;12.134;2023-01-08T00:47:45;544.70;;;0.30;;
17710;SDS011;8975;57.718;12.134;2023-01-08T00:50:11;541.00;;;0.20;;
17710;SDS011;8975;57.718;12.134;2023-01-08T00:52:36;539.20;;;0.20;;
17710;SDS011;8975;57.718;12.134;2023-01-08T00:55:02;518.25;;;0.20;;
17710;SDS011;8975;57.718;12.134;2023-01-08T00:57:32;542.22;;;0.20;;
17710;SDS011;8975;57.718;12.134;2023-01-08T01:00:00;531.70;;;0.20;;
17710;SDS011;8975;57.718;12.134;2023-01-08T01:02:26;533.67;;;0.20;;
17710;SDS011;8975;57.718;12.134;2023-01-08T01:04:52;542.45;;;0.20;;
17710;SDS011;8975;57.718;12.134;2023-01-08T01:07:18;538.87;;;0.20;;
17710;SDS011;8975;57.718;12.134;2023-01-08T01:09:43;527.10;;;0.20;;
17710;SDS011;8975;57.718;12.134;2023-01-08T01:12:09;532.63;;;0.20;;
17710;SDS011;8975;57.718;12.134;2023-01-08T01:14:36;520.03;;;0.20;;
17710;SDS011;8975;57.718;12.134;2023-01-08T01:17:03;520.92;;;0.20;;
17710;SDS011;8975;57.718;12.134;2023-01-08T01:19:29;528.95;;;0.20;;
17710;SDS011;8975;57.718;12.134;2023-01-08T01:21:55;527.53;;;0.20;;
17710;SDS011;8975;57.718;12.134;2023-01-08T01:24:20;528.50;;;0.20;;
17710;SDS011;8975;57.718;12.134;2023-01-08T01:26:49;529.17;;;0.20;;
17710;SDS011;8975;57.718;12.134;2023-01-08T01:29:18;532.77;;;0.20;;
17710;SDS011;8975;57.718;12.134;2023-01-08T01:31:43;533.17;;;0.20;;
17710;SDS011;8975;57.718;12.134;2023-01-08T01:34:09;539.85;;;0.20;;
17710;SDS011;8975;57.718;12.134;2023-01-08T01:36:35;537.28;;;0.20;;
17710;SDS011;8975;57.718;12.134;2023-01-08T01:39:01;530.97;;;0.20;;
17710;SDS011;8975;57.718;12.134;2023-01-08T01:41:28;536.67;;;0.20;;
17710;SDS011;8975;57.718;12.134;2023-01-08T01:44:32;526.40;;;0.20;;
17710;SDS011;8975;57.718;12.134;2023-01-08T01:49:59;526.17;;;0.20;;
17710;SDS011;8975;57.718;12.134;2023-01-08T01:52:26;522.75;;;0.20;;
17710;SDS011;8975;57.718;12.134;2023-01-08T01:54:55;525.55;;;0.20;;
17710;SDS011;8975;57.718;12.134;2023-01-08T01:57:21;526.88;;;0.20;;
17710;SDS011;8975;57.718;12.134;2023-01-08T01:59:48;531.15;;;0.20;;
17710;SDS011;8975;57.718;12.134;2023-01-08T02:02:14;528.40;;;0.20;;
17710;SDS011;8975;57.718;12.134;2023-01-08T02:04:40;529.53;;;0.20;;
17710;SDS011;8975;57.718;12.134;2023-01-08T02:07:14;525.10;;;0.20;;
17710;SDS011;8975;57.718;12.134;2023-01-08T02:12:35;523.83;;;0.20;;
17710;SDS011;8975;57.718;12.134;2023-01-08T02:26:10;511.17;;;0.20;;
17710;SDS011;8975;57.718;12.134;2023-01-08T02:28:40;517.10;;;0.20;;
17710;SDS011;8975;57.718;12.134;2023-01-08T02:31:13;518.00;;;0.20;;
17710;SDS011;8975;57.718;12.134;2023-01-08T02:33:41;513.75;;;0.20;;
17710;SDS011;8975;57.718;12.134;2023-01-08T02:38:44;515.25;;;0.20;;
17710;SDS011;8975;57.718;12.134;2023-01-08T02:41:41;514.47;;;0.20;;
17710;SDS011;8975;57.718;12.134;2023-01-08T02:44:08;514.15;;;0.20;;
17710;SDS011;8975;57.718;12.134;2023-01-08T02:46:39;511.35;;;0.20;;
17710;SDS011;8975;57.718;12.134;2023-01-08T02:49:06;509.58;;;0.20;;
17710;SDS011;8975;57.718;12.134;2023-01-08T02:51:40;505.90;;;0.10;;
17710;SDS011;8975;57.718;12.134;2023-01-08T02:54:23;504.33;;;0.20;;
17710;SDS011;8975;57.718;12.134;2023-01-08T02:56:54;505.05;;;0.20;;
17710;SDS011;8975;57.718;12.134;2023-01-08T02:59:24;502.42;;;0.20;;
17710;SDS011;8975;57.718;12.134;2023-01-08T03:01:53;496.77;;;0.20;;
17710;SDS011;8975;57.718;12.134;2023-01-08T03:04:21;500.50;;;0.10;;
17710;SDS011;8975;57.718;12.134;2023-01-08T03:06:49;501.23;;;0.20;;
17710;SDS011;8975;57.718;12.134;2023-01-08T03:09:15;501.30;;;0.20;;
17710;SDS011;8975;57.718;12.134;2023-01-08T03:11:46;498.75;;;0.20;;
17710;SDS011;8975;57.718;12.134;2023-01-08T03:14:46;501.67;;;0.20;;
17710;SDS011;8975;57.718;12.134;2023-01-08T03:17:19;501.23;;;0.20;;
17710;SDS011;8975;57.718;12.134;2023-01-08T03:19:52;496.17;;;0.20;;
17710;SDS011;8975;57.718;12.134;2023-01-08T03:22:23;495.40;;;0.20;;
17710;SDS011;8975;57.718;12.134;2023-01-08T03:24:50;494.93;;;0.20;;
17710;SDS011;8975;57.718;12.134;2023-01-08T03:27:20;493.40;;;0.10;;
17710;SDS011;8975;57.718;12.134;2023-01-08T03:29:51;489.83;;;0.10;;
17710;SDS011;8975;57.718;12.134;2023-01-08T03:32:18;484.95;;;0.10;;
17710;SDS011;8975;57.718;12.134;2023-01-08T03:34:48;495.75;;;0.10;;
17710;SDS011;8975;57.718;12.134;2023-01-08T03:37:15;492.40;;;0.20;;
17710;SDS011;8975;57.718;12.134;2023-01-08T03:39:48;487.27;;;0.10;;
17710;SDS011;8975;57.718;12.134;2023-01-08T03:42:19;488.33;;;0.10;;
17710;SDS011;8975;57.718;12.134;2023-01-08T03:44:47;486.20;;;0.10;;
17710;SDS011;8975;57.718;12.134;2023-01-08T03:47:12;489.10;;;0.10;;
17710;SDS011;8975;57.718;12.134;2023-01-08T03:49:39;488.55;;;0.10;;
17710;SDS011;8975;57.718;12.134;2023-01-08T03:52:07;488.45;;;0.10;;
17710;SDS011;8975;57.718;12.134;2023-01-08T03:54:34;490.93;;;0.10;;
17710;SDS011;8975;57.718;12.134;2023-01-08T03:57:00;486.88;;;0.10;;
17710;SDS011;8975;57.718;12.134;2023-01-08T03:59:26;484.33;;;0.10;;
17710;SDS011;8975;57.718;12.134;2023-01-08T04:01:52;487.70;;;0.10;;
17710;SDS011;8975;57.718;12.134;2023-01-08T04:04:18;484.70;;;0.10;;
17710;SDS011;8975;57.718;12.134;2023-01-08T04:06:43;486.33;;;0.10;;
17710;SDS011;8975;57.718;12.134;2023-01-08T04:09:09;488.10;;;0.10;;
17710;SDS011;8975;57.718;12.134;2023-01-08T04:11:34;485.43;;;0.10;;
17710;SDS011;8975;57.718;12.134;2023-01-08T04:13:59;484.70;;;0.10;;
17710;SDS011;8975;57.718;12.134;2023-01-08T04:16:25;482.52;;;0.10;;
17710;SDS011;8975;57.718;12.134;2023-01-08T04:18:51;480.97;;;0.10;;
17710;SDS011;8975;57.718;12.134;2023-01-08T04:21:16;480.47;;;0.10;;
17710;SDS011;8975;57.718;12.134;2023-01-08T04:23:41;465.95;;;0.10;;
17710;SDS011;8975;57.718;12.134;2023-01-08T04:26:07;461.98;;;0.10;;
17710;SDS011;8975;57.718;12.134;2023-01-08T04:28:33;463.48;;;0.10;;
17710;SDS011;8975;57.718;12.134;2023-01-08T04:30:59;461.65;;;0.10;;
17710;SDS011;8975;57.718;12.134;2023-01-08T04:33:32;458.30;;;0.10;;
17710;SDS011;8975;57.718;12.134;2023-01-08T04:35:59;463.17;;;0.10;;
17710;SDS011;8975;57.718;12.134;2023-01-08T04:38:25;461.00;;;0.10;;
17710;SDS011;8975;57.718;12.134;2023-01-08T04:40:55;467.53;;;0.10;;
17710;SDS011;8975;57.718;12.134;2023-01-08T04:43:25;468.50;;;0.10;;
17710;SDS011;8975;57.718;12.134;2023-01-08T04:45:51;460.37;;;0.10;;
17710;SDS011;8975;57.718;12.134;2023-01-08T04:48:16;462.40;;;0.10;;
17710;SDS011;8975;57.718;12.134;2023-01-08T04:50:41;463.43;;;0.10;;
17710;SDS011;8975;57.718;12.134;2023-01-08T04:53:07;462.10;;;0.10;;
17710;SDS011;8975;57.718;12.134;2023-01-08T04:55:32;464.40;;;0.10;;
17710;SDS011;8975;57.718;12.134;2023-01-08T04:57:58;465.87;;;0.10;;
17710;SDS011;8975;57.718;12.134;2023-01-08T05:00:24;465.87;;;0.10;;
17710;SDS011;8975;57.718;12.134;2023-01-08T05:02:49;466.67;;;0.10;;
17710;SDS011;8975;57.718;12.134;2023-01-08T05:05:14;465.33;;;0.10;;
17710;SDS011;8975;57.718;12.134;2023-01-08T05:07:40;467.17;;;0.10;;
17710;SDS011;8975;57.718;12.134;2023-01-08T05:10:05;469.67;;;0.10;;
17710;SDS011;8975;57.718;12.134;2023-01-08T05:12:31;463.67;;;0.10;;
17710;SDS011;8975;57.718;12.134;2023-01-08T05:14:57;461.87;;;0.10;;
17710;SDS011;8975;57.718;12.134;2023-01-08T05:17:22;463.10;;;0.10;;
17710;SDS011;8975;57.718;12.134;2023-01-08T05:19:47;461.47;;;0.10;;
17710;SDS011;8975;57.718;12.134;2023-01-08T05:22:13;461.85;;;0.10;;
17710;SDS011;8975;57.718;12.134;2023-01-08T05:24:38;462.92;;;0.10;;
17710;SDS011;8975;57.718;12.134;2023-01-08T05:27:04;461.10;;;0.10;;
17710;SDS011;8975;57.718;12.134;2023-01-08T05:29:29;459.30;;;0.10;;
17710;SDS011;8975;57.718;12.134;2023-01-08T05:31:54;460.37;;;0.10;;
17710;SDS011;8975;57.718;12.134;2023-01-08T05:34:21;462.50;;;0.10;;
17710;SDS011;8975;57.718;12.134;2023-01-08T05:36:46;460.27;;;0.10;;
17710;SDS011;8975;57.718;12.134;2023-01-08T05:39:12;458.13;;;0.10;;
17710;SDS011;8975;57.718;12.134;2023-01-08T05:41:37;459.27;;;0.10;;
17710;SDS011;8975;57.718;12.134;2023-01-08T05:44:03;459.67;;;0.10;;
17710;SDS011;8975;57.718;12.134;2023-01-08T05:46:28;462.33;;;0.10;;
17710;SDS011;8975;57.718;12.134;2023-01-08T05:48:56;461.97;;;0.10;;
17710;SDS011;8975;57.718;12.134;2023-01-08T05:51:22;461.63;;;0.10;;
17710;SDS011;8975;57.718;12.134;2023-01-08T05:53:47;466.77;;;0.10;;
17710;SDS011;8975;57.718;12.134;2023-01-08T05:56:12;461.47;;;0.10;;
17710;SDS011;8975;57.718;12.134;2023-01-08T05:58:38;456.17;;;0.10;;
17710;SDS011;8975;57.718;12.134;2023-01-08T06:01:07;454.03;;;0.10;;
17710;SDS011;8975;57.718;12.134;2023-01-08T06:03:35;448.15;;;0.10;;
17710;SDS011;8975;57.718;12.134;2023-01-08T06:06:02;450.65;;;0.10;;
17710;SDS011;8975;57.718;12.134;2023-01-08T06:08:29;452.92;;;0.10;;
17710;SDS011;8975;57.718;12.134;2023-01-08T06:10:59;449.25;;;0.10;;
17710;SDS011;8975;57.718;12.134;2023-01-08T06:13:25;449.58;;;0.10;;
17710;SDS011;8975;57.718;12.134;2023-01-08T06:15:51;448.52;;;0.10;;
17710;SDS011;8975;57.718;12.134;2023-01-08T06:18:16;447.23;;;0.10;;
17710;SDS011;8975;57.718;12.134;2023-01-08T06:20:42;446.23;;;0.10;;
17710;SDS011;8975;57.718;12.134;2023-01-08T06:23:08;445.50;;;0.10;;
17710;SDS011;8975;57.718;12.134;2023-01-08T06:25:34;445.27;;;0.10;;
17710;SDS011;8975;57.718;12.134;2023-01-08T06:28:00;447.23;;;0.10;;
17710;SDS011;8975;57.718;12.134;2023-01-08T06:30:26;448.53;;;0.10;;
17710;SDS011;8975;57.718;12.134;2023-01-08T06:32:57;446.67;;;0.10;;
17710;SDS011;8975;57.718;12.134;2023-01-08T06:35:23;445.98;;;0.10;;
17710;SDS011;8975;57.718;12.134;2023-01-08T06:37:49;445.25;;;0.10;;
17710;SDS011;8975;57.718;12.134;2023-01-08T06:40:15;442.70;;;0.10;;
17710;SDS011;8975;57.718;12.134;2023-01-08T06:42:40;443.65;;;0.10;;
17710;SDS011;8975;57.718;12.134;2023-01-08T06:45:08;443.95;;;0.10;;
17710;SDS011;8975;57.718;12.134;2023-01-08T06:47:33;441.30;;;0.10;;
17710;SDS011;8975;57.718;12.134;2023-01-08T06:49:59;447.40;;;0.10;;
17710;SDS011;8975;57.718;12.134;2023-01-08T06:52:25;451.27;;;0.10;;
17710;SDS011;8975;57.718;12.134;2023-01-08T06:54:50;449.23;;;0.10;;
17710;SDS011;8975;57.718;12.134;2023-01-08T06:57:16;448.25;;;0.10;;
17710;SDS011;8975;57.718;12.134;2023-01-08T06:59:41;447.40;;;0.10;;
17710;SDS011;8975;57.718;12.134;2023-01-08T07:02:13;448.33;;;0.10;;
17710;SDS011;8975;57.718;12.134;2023-01-08T07:04:39;448.02;;;0.10;;
17710;SDS011;8975;57.718;12.134;2023-01-08T07:07:05;449.42;;;0.10;;
17710;SDS011;8975;57.718;12.134;2023-01-08T07:09:32;448.27;;;0.10;;
17710;SDS011;8975;57.718;12.134;2023-01-08T07:11:58;449.92;;;0.10;;
17710;SDS011;8975;57.718;12.134;2023-01-08T07:14:23;445.83;;;0.10;;
17710;SDS011;8975;57.718;12.134;2023-01-08T07:16:49;445.77;;;0.10;;
17710;SDS011;8975;57.718;12.134;2023-01-08T07:19:14;447.27;;;0.10;;
17710;SDS011;8975;57.718;12.134;2023-01-08T07:21:39;336.83;;;0.00;;
17710;SDS011;8975;57.718;12.134;2023-01-08T07:24:05;2.00;;;0.00;;
17710;SDS011;8975;57.718;12.134;2023-01-08T07:26:32;6.07;;;0.00;;
17710;SDS011;8975;57.718;12.134;2023-01-08T07:28:58;2.70;;;0.00;;
17710;SDS011;8975;57.718;12.134;2023-01-08T07:31:25;3.10;;;0.00;;
17710;SDS011;8975;57.718;12.134;2023-01-08T07:33:50;2.90;;;0.00;;
17710;SDS011;8975;57.718;12.134;2023-01-08T07:36:16;1.40;;;0.00;;
17710;SDS011;8975;57.718;12.134;2023-01-08T07:38:48;3.67;;;0.00;;
17710;SDS011;8975;57.718;12.134;2023-01-08T07:41:14;2.40;;;0.00;;
17710;SDS011;8975;57.718;12.134;2023-01-08T07:43:40;4.63;;;0.00;;
17710;SDS011;8975;57.718;12.134;2023-01-08T07:46:05;2.20;;;0.00;;
17710;SDS011;8975;57.718;12.134;2023-01-08T07:48:31;1.60;;;0.00;;
17710;SDS011;8975;57.718;12.134;2023-01-08T07:51:00;1.60;;;0.00;;
17710;SDS011;8975;57.718;12.134;2023-01-08T07:53:27;1.40;;;0.00;;
17710;SDS011;8975;57.718;12.134;2023-01-08T07:55:57;2.70;;;0.00;;
17710;SDS011;8975;57.718;12.134;2023-01-08T07:58:24;2.03;;;0.00;;
17710;SDS011;8975;57.718;12.134;2023-01-08T08:00:50;2.07;;;0.00;;
17710;SDS011;8975;57.718;12.134;2023-01-08T08:03:15;1.80;;;0.00;;
17710;SDS011;8975;57.718;12.134;2023-01-08T08:05:42;1.63;;;0.00;;
17710;SDS011;8975;57.718;12.134;2023-01-08T08:08:09;2.00;;;0.00;;
17710;SDS011;8975;57.718;12.134;2023-01-08T08:10:36;1.93;;;0.00;;
17710;SDS011;8975;57.718;12.134;2023-01-08T08:13:03;2.10;;;0.00;;
17710;SDS011;8975;57.718;12.134;2023-01-08T08:15:29;2.33;;;0.00;;
17710;SDS011;8975;57.718;12.134;2023-01-08T08:17:56;2.20;;;0.00;;
17710;SDS011;8975;57.718;12.134;2023-01-08T08:20:21;2.20;;;0.00;;
17710;SDS011;8975;57.718;12.134;2023-01-08T08:22:47;2.43;;;0.00;;
17710;SDS011;8975;57.718;12.134;2023-01-08T08:25:12;2.93;;;0.00;;
17710;SDS011;8975;57.718;12.134;2023-01-08T08:27:39;3.00;;;0.00;;
17710;SDS011;8975;57.718;12.134;2023-01-08T08:30:11;1.97;;;0.00;;
17710;SDS011;8975;57.718;12.134;2023-01-08T08:33:05;1.87;;;0.00;;
17710;SDS011;8975;57.718;12.134;2023-01-08T08:35:31;2.30;;;0.00;;
17710;SDS011;8975;57.718;12.134;2023-01-08T08:38:05;1.73;;;0.00;;
17710;SDS011;8975;57.718;12.134;2023-01-08T08:40:30;3.17;;;0.00;;
17710;SDS011;8975;57.718;12.134;2023-01-08T08:42:57;2.03;;;0.00;;
17710;SDS011;8975;57.718;12.134;2023-01-08T08:45:24;2.03;;;0.00;;
17710;SDS011;8975;57.718;12.134;2023-01-08T08:47:50;1.80;;;0.00;;
17710;SDS011;8975;57.718;12.134;2023-01-08T08:50:17;1.97;;;0.00;;
17710;SDS011;8975;57.718;12.134;2023-01-08T08:52:43;2.07;;;0.00;;
17710;SDS011;8975;57.718;12.134;2023-01-08T08:55:10;1.90;;;0.00;;
17710;SDS011;8975;57.718;12.134;2023-01-08T08:58:04;1.87;;;0.00;;
17710;SDS011;8975;57.718;12.134;2023-01-08T09:00:35;2.10;;;0.00;;
17710;SDS011;8975;57.718;12.134;2023-01-08T09:03:05;2.50;;;0.00;;
17710;SDS011;8975;57.718;12.134;2023-01-08T09:05:33;2.57;;;0.00;;
17710;SDS011;8975;57.718;12.134;2023-01-08T09:08:00;3.23;;;0.00;;
17710;SDS011;8975;57.718;12.134;2023-01-08T09:10:26;1.93;;;0.00;;
17710;SDS011;8975;57.718;12.134;2023-01-08T09:12:52;1.77;;;0.00;;
17710;SDS011;8975;57.718;12.134;2023-01-08T09:15:17;2.10;;;0.00;;
17710;SDS011;8975;57.718;12.134;2023-01-08T09:17:43;2.70;;;0.00;;
17710;SDS011;8975;57.718;12.134;2023-01-08T09:20:18;2.83;;;0.00;;
17710;SDS011;8975;57.718;12.134;2023-01-08T09:22:44;2.77;;;0.00;;
17710;SDS011;8975;57.718;12.134;2023-01-08T09:25:09;1.57;;;0.00;;
17710;SDS011;8975;57.718;12.134;2023-01-08T09:27:35;2.40;;;0.00;;
17710;SDS011;8975;57.718;12.134;2023-01-08T09:30:01;2.20;;;0.00;;
17710;SDS011;8975;57.718;12.134;2023-01-08T09:32:29;3.03;;;0.00;;
17710;SDS011;8975;57.718;12.134;2023-01-08T09:35:20;1.73;;;0.00;;
17710;SDS011;8975;57.718;12.134;2023-01-08T09:38:15;2.57;;;0.00;;
17710;SDS011;8975;57.718;12.134;2023-01-08T09:41:30;3.53;;;0.00;;
17710;SDS011;8975;57.718;12.134;2023-01-08T09:44:37;2.20;;;0.00;;
17710;SDS011;8975;57.718;12.134;2023-01-08T09:47:31;2.43;;;0.00;;
17710;SDS011;8975;57.718;12.134;2023-01-08T09:50:24;2.57;;;0.00;;
17710;SDS011;8975;57.718;12.134;2023-01-08T09:53:34;1.93;;;0.00;;
17710;SDS011;8975;57.718;12.134;2023-01-08T09:56:16;1.70;;;0.00;;
17710;SDS011;8975;57.718;12.134;2023-01-08T09:59:26;2.63;;;0.00;;
17710;SDS011;8975;57.718;12.134;2023-01-08T10:01:53;1.97;;;0.00;;
17710;SDS011;8975;57.718;12.134;2023-01-08T10:05:01;2.07;;;0.00;;
17710;SDS011;8975;57.718;12.134;2023-01-08T10:08:02;2.40;;;0.00;;
17710;SDS011;8975;57.718;12.134;2023-01-08T10:10:28;4.33;;;0.00;;
17710;SDS011;8975;57.718;12.134;2023-01-08T10:12:57;1.87;;;0.00;;
17710;SDS011;8975;57.718;12.134;2023-01-08T10:15:28;2.40;;;0.00;;
17710;SDS011;8975;57.718;12.134;2023-01-08T10:20:28;2.73;;;0.00;;
17710;SDS011;8975;57.718;12.134;2023-01-08T10:22:54;2.40;;;0.00;;
17710;SDS011;8975;57.718;12.134;2023-01-08T10:25:25;1.57;;;0.00;;
17710;SDS011;8975;57.718;12.134;2023-01-08T10:27:52;2.73;;;0.00;;
17710;SDS011;8975;57.718;12.134;2023-01-08T10:30:27;2.33;;;0.00;;
17710;SDS011;8975;57.718;12.134;2023-01-08T10:33:03;2.30;;;0.00;;
17710;SDS011;8975;57.718;12.134;2023-01-08T10:35:32;2.70;;;0.00;;
17710;SDS011;8975;57.718;12.134;2023-01-08T10:38:00;4.63;;;0.00;;
17710;SDS011;8975;57.718;12.134;2023-01-08T10:46:48;3.47;;;0.00;;
17710;SDS011;8975;57.718;12.134;2023-01-08T10:49:56;4.37;;;0.00;;
17710;SDS011;8975;57.718;12.134;2023-01-08T10:52:50;2.13;;;0.00;;
17710;SDS011;8975;57.718;12.134;2023-01-08T10:56:19;2.33;;;0.00;;
17710;SDS011;8975;57.718;12.134;2023-01-08T10:59:46;2.20;;;0.00;;
17710;SDS011;8975;57.718;12.134;2023-01-08T11:02:24;2.93;;;0.00;;
17710;SDS011;8975;57.718;12.134;2023-01-08T11:05:10;3.27;;;0.00;;
17710;SDS011;8975;57.718;12.134;2023-01-08T11:07:35;2.17;;;0.00;;
17710;SDS011;8975;57.718;12.134;2023-01-08T11:10:02;3.13;;;0.00;;
17710;SDS011;8975;57.718;12.134;2023-01-08T11:12:39;3.63;;;0.00;;
17710;SDS011;8975;57.718;12.134;2023-01-08T11:15:40;2.50;;;0.00;;
17710;SDS011;8975;57.718;12.134;2023-01-08T11:18:28;2.87;;;0.00;;
17710;SDS011;8975;57.718;12.134;2023-01-08T11:21:37;2.60;;;0.00;;
17710;SDS011;8975;57.718;12.134;2023-01-08T11:24:09;2.37;;;0.00;;
17710;SDS011;8975;57.718;12.134;2023-01-08T11:27:08;2.47;;;0.00;;
17710;SDS011;8975;57.718;12.134;2023-01-08T11:29:48;2.30;;;0.00;;
17710;SDS011;8975;57.718;12.134;2023-01-08T11:35:39;1.67;;;0.00;;
17710;SDS011;8975;57.718;12.134;2023-01-08T11:38:11;3.30;;;0.00;;
17710;SDS011;8975;57.718;12.134;2023-01-08T11:56:04;3.47;;;0.00;;
17710;SDS011;8975;57.718;12.134;2023-01-08T12:07:43;3.40;;;0.00;;
17710;SDS011;8975;57.718;12.134;2023-01-08T12:20:49;2.17;;;0.00;;
17710;SDS011;8975;57.718;12.134;2023-01-08T12:29:05;4.17;;;0.00;;
17710;SDS011;8975;57.718;12.134;2023-01-08T12:34:59;1.93;;;0.00;;
17710;SDS011;8975;57.718;12.134;2023-01-08T12:40:21;2.63;;;0.00;;
17710;SDS011;8975;57.718;12.134;2023-01-08T12:42:52;2.33;;;0.00;;
17710;SDS011;8975;57.718;12.134;2023-01-08T12:45:27;2.43;;;0.00;;
17710;SDS011;8975;57.718;12.134;2023-01-08T12:47:55;2.27;;;0.00;;
17710;SDS011;8975;57.718;12.134;2023-01-08T12:50:34;2.90;;;0.00;;
17710;SDS011;8975;57.718;12.134;2023-01-08T12:53:11;2.60;;;0.00;;
17710;SDS011;8975;57.718;12.134;2023-01-08T12:56:21;4.97;;;0.00;;
17710;SDS011;8975;57.718;12.134;2023-01-08T13:01:40;2.40;;;0.00;;
17710;SDS011;8975;57.718;12.134;2023-01-08T13:04:16;2.17;;;0.00;;
17710;SDS011;8975;57.718;12.134;2023-01-08T13:09:26;2.53;;;0.00;;
17710;SDS011;8975;57.718;12.134;2023-01-08T13:11:53;1.93;;;0.00;;
17710;SDS011;8975;57.718;12.134;2023-01-08T13:14:20;4.33;;;0.00;;
17710;SDS011;8975;57.718;12.134;2023-01-08T13:16:47;1.40;;;0.00;;
17710;SDS011;8975;57.718;12.134;2023-01-08T13:19:26;2.83;;;0.00;;
17710;SDS011;8975;57.718;12.134;2023-01-08T13:21:56;2.20;;;0.00;;
17710;SDS011;8975;57.718;12.134;2023-01-08T13:24:34;2.47;;;0.00;;
17710;SDS011;8975;57.718;12.134;2023-01-08T13:29:45;3.03;;;0.00;;
17710;SDS011;8975;57.718;12.134;2023-01-08T13:32:22;2.70;;;0.00;;
17710;SDS011;8975;57.718;12.134;2023-01-08T13:37:40;3.10;;;0.00;;
17710;SDS011;8975;57.718;12.134;2023-01-08T13:48:26;2.97;;;0.00;;
17710;SDS011;8975;57.718;12.134;2023-01-08T13:50:53;2.23;;;0.00;;
17710;SDS011;8975;57.718;12.134;2023-01-08T13:53:20;2.97;;;0.00;;
17710;SDS011;8975;57.718;12.134;2023-01-08T13:55:56;2.83;;;0.00;;
17710;SDS011;8975;57.718;12.134;2023-01-08T13:58:24;2.67;;;0.00;;
17710;SDS011;8975;57.718;12.134;2023-01-08T14:00:53;2.03;;;0.00;;
17710;SDS011;8975;57.718;12.134;2023-01-08T14:06:04;2.23;;;0.00;;
17710;SDS011;8975;57.718;12.134;2023-01-08T14:08:49;3.80;;;0.00;;
17710;SDS011;8975;57.718;12.134;2023-01-08T14:11:15;3.17;;;0.00;;
17710;SDS011;8975;57.718;12.134;2023-01-08T14:13:41;2.97;;;0.00;;
17710;SDS011;8975;57.718;12.134;2023-01-08T14:16:09;2.43;;;0.00;;
17710;SDS011;8975;57.718;12.134;2023-01-08T14:18:41;3.63;;;0.00;;
17710;SDS011;8975;57.718;12.134;2023-01-08T14:21:08;2.00;;;0.00;;
17710;SDS011;8975;57.718;12.134;2023-01-08T14:23:44;3.07;;;0.00;;
17710;SDS011;8975;57.718;12.134;2023-01-08T14:26:33;2.43;;;0.00;;
17710;SDS011;8975;57.718;12.134;2023-01-08T14:29:00;2.30;;;0.00;;
17710;SDS011;8975;57.718;12.134;2023-01-08T14:31:26;3.03;;;0.00;;
17710;SDS011;8975;57.718;12.134;2023-01-08T14:33:56;1.97;;;0.00;;
17710;SDS011;8975;57.718;12.134;2023-01-08T14:36:32;1.93;;;0.00;;
17710;SDS011;8975;57.718;12.134;2023-01-08T14:38:57;3.43;;;0.00;;
17710;SDS011;8975;57.718;12.134;2023-01-08T14:41:31;2.30;;;0.00;;
17710;SDS011;8975;57.718;12.134;2023-01-08T14:44:19;2.13;;;0.00;;
17710;SDS011;8975;57.718;12.134;2023-01-08T14:46:45;3.23;;;0.00;;
17710;SDS011;8975;57.718;12.134;2023-01-08T14:49:19;3.07;;;0.00;;
17710;SDS011;8975;57.718;12.134;2023-01-08T14:51:52;2.97;;;0.00;;
17710;SDS011;8975;57.718;12.134;2023-01-08T14:54:19;3.23;;;0.00;;
17710;SDS011;8975;57.718;12.134;2023-01-08T14:56:54;2.13;;;0.00;;
17710;SDS011;8975;57.718;12.134;2023-01-08T14:59:25;2.37;;;0.00;;
17710;SDS011;8975;57.718;12.134;2023-01-08T15:01:55;1.87;;;0.00;;
17710;SDS011;8975;57.718;12.134;2023-01-08T15:04:30;2.00;;;0.00;;
17710;SDS011;8975;57.718;12.134;2023-01-08T15:07:15;2.50;;;0.00;;
17710;SDS011;8975;57.718;12.134;2023-01-08T15:09:56;3.43;;;0.00;;
17710;SDS011;8975;57.718;12.134;2023-01-08T15:12:27;2.00;;;0.00;;
17710;SDS011;8975;57.718;12.134;2023-01-08T15:15:07;3.07;;;0.00;;
17710;SDS011;8975;57.718;12.134;2023-01-08T15:17:34;2.50;;;0.00;;
17710;SDS011;8975;57.718;12.134;2023-01-08T15:20:00;2.00;;;0.00;;
17710;SDS011;8975;57.718;12.134;2023-01-08T15:22:26;2.87;;;0.00;;
17710;SDS011;8975;57.718;12.134;2023-01-08T15:25:00;2.17;;;0.00;;
17710;SDS011;8975;57.718;12.134;2023-01-08T15:27:29;3.10;;;0.00;;
17710;SDS011;8975;57.718;12.134;2023-01-08T15:29:55;2.20;;;0.00;;
17710;SDS011;8975;57.718;12.134;2023-01-08T15:32:26;4.10;;;0.00;;
17710;SDS011;8975;57.718;12.134;2023-01-08T15:34:58;1.80;;;0.00;;
17710;SDS011;8975;57.718;12.134;2023-01-08T15:37:23;2.70;;;0.00;;
17710;SDS011;8975;57.718;12.134;2023-01-08T15:39:52;2.00;;;0.00;;
17710;SDS011;8975;57.718;12.134;2023-01-08T15:42:21;1.80;;;0.00;;
17710;SDS011;8975;57.718;12.134;2023-01-08T15:45:14;1.80;;;0.00;;
17710;SDS011;8975;57.718;12.134;2023-01-08T15:47:49;3.10;;;0.00;;
17710;SDS011;8975;57.718;12.134;2023-01-08T15:50:15;2.33;;;0.00;;
17710;SDS011;8975;57.718;12.134;2023-01-08T15:52:43;2.07;;;0.00;;
17710;SDS011;8975;57.718;12.134;2023-01-08T15:55:29;1.77;;;0.00;;
17710;SDS011;8975;57.718;12.134;2023-01-08T15:57:57;2.63;;;0.00;;
17710;SDS011;8975;57.718;12.134;2023-01-08T16:00:29;3.63;;;0.00;;
17710;SDS011;8975;57.718;12.134;2023-01-08T16:02:58;2.30;;;0.00;;
17710;SDS011;8975;57.718;12.134;2023-01-08T16:05:24;2.03;;;0.00;;
17710;SDS011;8975;57.718;12.134;2023-01-08T16:07:58;1.93;;;0.00;;
17710;SDS011;8975;57.718;12.134;2023-01-08T16:10:23;2.77;;;0.00;;
17710;SDS011;8975;57.718;12.134;2023-01-08T16:12:53;2.17;;;0.00;;
17710;SDS011;8975;57.718;12.134;2023-01-08T16:15:23;2.23;;;0.00;;
17710;SDS011;8975;57.718;12.134;2023-01-08T16:17:49;2.73;;;0.00;;
17710;SDS011;8975;57.718;12.134;2023-01-08T16:20:17;2.40;;;0.00;;
17710;SDS011;8975;57.718;12.134;2023-01-08T16:23:01;1.93;;;0.00;;
17710;SDS011;8975;57.718;12.134;2023-01-08T16:25:28;1.70;;;0.00;;
17710;SDS011;8975;57.718;12.134;2023-01-08T16:27:55;2.97;;;0.00;;
17710;SDS011;8975;57.718;12.134;2023-01-08T16:30:21;3.33;;;0.00;;
17710;SDS011;8975;57.718;12.134;2023-01-08T16:32:50;3.90;;;0.00;;
17710;SDS011;8975;57.718;12.134;2023-01-08T16:35:17;3.83;;;0.00;;
17710;SDS011;8975;57.718;12.134;2023-01-08T16:37:43;2.03;;;0.00;;